sensor_id;sensor_type;location;lat;lon;timestamp;pressure;altitude;pressure_sealevel;temperature;humidity
56040;BME280;43937;41.366;2.072;2023-07-30T00:01:19;100718.16;;;29.51;67.92
56040;BME280;43937;41.366;2.072;2023-07-30T00:03:45;100724.41;;;29.42;67.47
56040;BME280;43937;41.366;2.072;2023-07-30T00:06:10;100710.78;;;29.26;67.91
56040;BME280;43937;41.366;2.072;2023-07-30T00:08:36;100735.81;;;29.51;68.26
56040;BME280;43937;41.366;2.072;2023-07-30T00:11:01;100728.44;;;29.60;67.11
56040;BME280;43937;41.366;2.072;2023-07-30T00:13:27;100723.06;;;29.69;66.92
56040;BME280;43937;41.366;2.072;2023-07-30T00:15:52;100721.19;;;29.59;67.18
56040;BME280;43937;41.366;2.072;2023-07-30T00:18:17;100724.97;;;29.74;67.10
56040;BME280;43937;41.366;2.072;2023-07-30T00:20:43;100683.38;;;29.52;67.10
56040;BME280;43937;41.366;2.072;2023-07-30T00:23:09;100716.09;;;29.66;66.92
56040;BME280;43937;41.366;2.072;2023-07-30T00:25:35;100717.22;;;29.60;66.60
56040;BME280;43937;41.366;2.072;2023-07-30T00:28:00;100725.09;;;29.63;67.35
56040;BME280;43937;41.366;2.072;2023-07-30T00:30:26;100725.38;;;29.62;66.83
56040;BME280;43937;41.366;2.072;2023-07-30T00:32:51;100724.59;;;29.51;67.93
56040;BME280;43937;41.366;2.072;2023-07-30T00:35:16;100721.22;;;29.54;68.13
56040;BME280;43937;41.366;2.072;2023-07-30T00:37:42;100718.56;;;29.68;67.40
56040;BME280;43937;41.366;2.072;2023-07-30T00:40:08;100722.69;;;29.81;66.22
56040;BME280;43937;41.366;2.072;2023-07-30T00:42:33;100717.91;;;29.81;66.91
56040;BME280;43937;41.366;2.072;2023-07-30T00:44:59;100712.66;;;29.75;65.98
56040;BME280;43937;41.366;2.072;2023-07-30T00:47:25;100712.81;;;29.83;65.96
56040;BME280;43937;41.366;2.072;2023-07-30T00:49:52;100717.06;;;29.81;65.93
56040;BME280;43937;41.366;2.072;2023-07-30T00:52:19;100712.88;;;29.78;66.15
56040;BME280;43937;41.366;2.072;2023-07-30T00:54:47;100715.72;;;29.73;66.23
56040;BME280;43937;41.366;2.072;2023-07-30T00:57:14;100682.00;;;29.49;66.43
56040;BME280;43937;41.366;2.072;2023-07-30T00:59:40;100710.28;;;29.53;67.12
56040;BME280;43937;41.366;2.072;2023-07-30T01:02:06;100711.50;;;29.41;67.67
56040;BME280;43937;41.366;2.072;2023-07-30T01:04:32;100692.06;;;29.21;67.16
56040;BME280;43937;41.366;2.072;2023-07-30T01:06:57;100715.22;;;29.32;67.46
56040;BME280;43937;41.366;2.072;2023-07-30T01:09:23;100694.09;;;29.10;67.93
56040;BME280;43937;41.366;2.072;2023-07-30T01:11:51;100713.69;;;29.10;67.87
56040;BME280;43937;41.366;2.072;2023-07-30T01:14:18;100691.41;;;28.90;68.22
56040;BME280;43937;41.366;2.072;2023-07-30T01:16:44;100720.47;;;29.04;67.73
56040;BME280;43937;41.366;2.072;2023-07-30T01:19:10;100732.50;;;29.05;68.42
56040;BME280;43937;41.366;2.072;2023-07-30T01:21:36;100733.97;;;29.02;68.86
56040;BME280;43937;41.366;2.072;2023-07-30T01:24:02;100728.09;;;28.93;68.17
56040;BME280;43937;41.366;2.072;2023-07-30T01:26:37;100713.28;;;28.83;68.44
56040;BME280;43937;41.366;2.072;2023-07-30T01:29:07;100696.00;;;28.70;69.12
56040;BME280;43937;41.366;2.072;2023-07-30T01:31:35;100722.59;;;28.78;69.19
56040;BME280;43937;41.366;2.072;2023-07-30T01:34:03;100740.81;;;28.75;70.11
56040;BME280;43937;41.366;2.072;2023-07-30T01:36:31;100724.59;;;28.67;69.95
56040;BME280;43937;41.366;2.072;2023-07-30T01:38:58;100747.25;;;28.76;70.17
56040;BME280;43937;41.366;2.072;2023-07-30T01:41:24;100740.53;;;28.72;70.66
56040;BME280;43937;41.366;2.072;2023-07-30T01:43:49;100735.28;;;28.60;71.37
56040;BME280;43937;41.366;2.072;2023-07-30T01:46:15;100738.66;;;28.52;71.49
56040;BME280;43937;41.366;2.072;2023-07-30T01:48:40;100738.09;;;28.50;71.88
56040;BME280;43937;41.366;2.072;2023-07-30T01:51:06;100702.38;;;28.21;71.95
56040;BME280;43937;41.366;2.072;2023-07-30T01:53:31;100730.31;;;28.42;72.09
56040;BME280;43937;41.366;2.072;2023-07-30T01:55:57;100725.25;;;28.49;71.15
56040;BME280;43937;41.366;2.072;2023-07-30T01:58:22;100724.91;;;28.61;70.52
56040;BME280;43937;41.366;2.072;2023-07-30T02:00:48;100731.41;;;28.51;71.19
56040;BME280;43937;41.366;2.072;2023-07-30T02:03:13;100716.59;;;28.45;71.26
56040;BME280;43937;41.366;2.072;2023-07-30T02:05:39;100736.69;;;28.63;70.37
56040;BME280;43937;41.366;2.072;2023-07-30T02:08:04;100735.53;;;28.69;70.51
56040;BME280;43937;41.366;2.072;2023-07-30T02:10:30;100706.78;;;28.48;71.01
56040;BME280;43937;41.366;2.072;2023-07-30T02:12:55;100723.53;;;28.58;70.61
56040;BME280;43937;41.366;2.072;2023-07-30T02:15:20;100735.28;;;28.60;71.17
56040;BME280;43937;41.366;2.072;2023-07-30T02:17:46;100738.00;;;28.70;71.32
56040;BME280;43937;41.366;2.072;2023-07-30T02:20:11;100734.41;;;28.65;70.44
56040;BME280;43937;41.366;2.072;2023-07-30T02:22:37;100735.81;;;28.62;71.08
56040;BME280;43937;41.366;2.072;2023-07-30T02:25:02;100715.13;;;28.53;72.29
56040;BME280;43937;41.366;2.072;2023-07-30T02:27:28;100738.59;;;28.67;74.14
56040;BME280;43937;41.366;2.072;2023-07-30T02:29:53;100742.44;;;28.87;73.40
56040;BME280;43937;41.366;2.072;2023-07-30T02:32:19;100737.59;;;28.92;73.77
56040;BME280;43937;41.366;2.072;2023-07-30T02:34:44;100727.19;;;29.08;72.35
56040;BME280;43937;41.366;2.072;2023-07-30T02:37:09;100746.28;;;28.96;73.98
56040;BME280;43937;41.366;2.072;2023-07-30T02:39:35;100725.41;;;28.73;74.42
56040;BME280;43937;41.366;2.072;2023-07-30T02:42:00;100733.47;;;28.85;73.69
56040;BME280;43937;41.366;2.072;2023-07-30T02:44:25;100728.69;;;28.85;74.47
56040;BME280;43937;41.366;2.072;2023-07-30T02:46:51;100752.72;;;29.02;74.32
56040;BME280;43937;41.366;2.072;2023-07-30T02:49:16;100752.59;;;28.72;75.67
56040;BME280;43937;41.366;2.072;2023-07-30T02:51:42;100730.34;;;28.86;74.42
56040;BME280;43937;41.366;2.072;2023-07-30T02:54:13;100751.94;;;28.86;76.06
56040;BME280;43937;41.366;2.072;2023-07-30T02:56:39;100753.66;;;28.76;76.49
56040;BME280;43937;41.366;2.072;2023-07-30T03:01:07;100740.25;;;28.73;77.14
56040;BME280;43937;41.366;2.072;2023-07-30T03:03:33;100755.81;;;28.95;76.74
56040;BME280;43937;41.366;2.072;2023-07-30T03:05:58;100764.53;;;28.93;77.34
56040;BME280;43937;41.366;2.072;2023-07-30T03:08:24;100767.78;;;29.11;76.70
56040;BME280;43937;41.366;2.072;2023-07-30T03:10:49;100762.19;;;29.11;76.03
56040;BME280;43937;41.366;2.072;2023-07-30T03:13:14;100762.75;;;29.13;76.18
56040;BME280;43937;41.366;2.072;2023-07-30T03:15:40;100763.91;;;29.02;76.88
56040;BME280;43937;41.366;2.072;2023-07-30T03:18:05;100772.38;;;28.86;77.87
56040;BME280;43937;41.366;2.072;2023-07-30T03:20:31;100765.41;;;28.84;78.82
56040;BME280;43937;41.366;2.072;2023-07-30T03:22:56;100770.28;;;28.63;79.90
56040;BME280;43937;41.366;2.072;2023-07-30T03:25:21;100766.59;;;28.67;80.69
56040;BME280;43937;41.366;2.072;2023-07-30T03:27:47;100763.25;;;28.65;80.23
56040;BME280;43937;41.366;2.072;2023-07-30T03:30:12;100755.91;;;28.80;79.93
56040;BME280;43937;41.366;2.072;2023-07-30T03:32:38;100744.78;;;28.64;79.52
56040;BME280;43937;41.366;2.072;2023-07-30T03:35:03;100759.34;;;28.66;80.78
56040;BME280;43937;41.366;2.072;2023-07-30T03:37:29;100764.28;;;28.85;79.28
56040;BME280;43937;41.366;2.072;2023-07-30T03:39:55;100768.56;;;28.67;80.64
56040;BME280;43937;41.366;2.072;2023-07-30T03:42:20;100777.81;;;28.67;80.59
56040;BME280;43937;41.366;2.072;2023-07-30T03:44:45;100768.22;;;28.84;79.97
56040;BME280;43937;41.366;2.072;2023-07-30T03:47:11;100783.06;;;28.84;80.00
56040;BME280;43937;41.366;2.072;2023-07-30T03:49:36;100786.94;;;28.93;80.15
56040;BME280;43937;41.366;2.072;2023-07-30T03:52:02;100795.09;;;28.90;74.56
56040;BME280;43937;41.366;2.072;2023-07-30T03:54:28;100768.84;;;28.65;73.69
56040;BME280;43937;41.366;2.072;2023-07-30T03:56:53;100803.56;;;28.69;73.22
56040;BME280;43937;41.366;2.072;2023-07-30T03:59:19;100802.56;;;28.45;73.48
56040;BME280;43937;41.366;2.072;2023-07-30T04:01:44;100806.75;;;28.42;74.17
56040;BME280;43937;41.366;2.072;2023-07-30T04:04:10;100799.19;;;28.43;73.85
56040;BME280;43937;41.366;2.072;2023-07-30T04:06:35;100797.50;;;28.37;73.16
56040;BME280;43937;41.366;2.072;2023-07-30T04:09:01;100806.16;;;28.40;73.68
56040;BME280;43937;41.366;2.072;2023-07-30T04:11:26;100807.56;;;28.38;73.93
56040;BME280;43937;41.366;2.072;2023-07-30T04:13:51;100816.25;;;28.41;73.43
56040;BME280;43937;41.366;2.072;2023-07-30T04:16:17;100817.38;;;28.50;73.21
56040;BME280;43937;41.366;2.072;2023-07-30T04:18:42;100817.66;;;28.49;72.43
56040;BME280;43937;41.366;2.072;2023-07-30T04:21:08;100818.22;;;28.51;73.11
56040;BME280;43937;41.366;2.072;2023-07-30T04:23:33;100814.56;;;28.50;72.54
56040;BME280;43937;41.366;2.072;2023-07-30T04:25:59;100805.31;;;28.40;73.15
56040;BME280;43937;41.366;2.072;2023-07-30T04:28:24;100816.81;;;28.48;73.22
56040;BME280;43937;41.366;2.072;2023-07-30T04:30:49;100812.63;;;28.46;73.14
56040;BME280;43937;41.366;2.072;2023-07-30T04:33:15;100825.44;;;28.62;73.16
56040;BME280;43937;41.366;2.072;2023-07-30T04:35:41;100805.91;;;28.42;72.58
56040;BME280;43937;41.366;2.072;2023-07-30T04:38:06;100826.56;;;28.61;72.17
56040;BME280;43937;41.366;2.072;2023-07-30T04:40:31;100817.66;;;28.49;71.93
56040;BME280;43937;41.366;2.072;2023-07-30T04:42:57;100832.16;;;28.56;72.43
56040;BME280;43937;41.366;2.072;2023-07-30T04:45:22;100844.50;;;28.60;72.58
56040;BME280;43937;41.366;2.072;2023-07-30T04:47:48;100842.53;;;28.56;72.82
56040;BME280;43937;41.366;2.072;2023-07-30T04:50:13;100824.91;;;28.40;71.97
56040;BME280;43937;41.366;2.072;2023-07-30T04:52:39;100806.19;;;28.30;72.71
56040;BME280;43937;41.366;2.072;2023-07-30T04:55:04;100845.59;;;28.59;72.28
56040;BME280;43937;41.366;2.072;2023-07-30T04:57:30;100850.06;;;28.65;72.32
56040;BME280;43937;41.366;2.072;2023-07-30T04:59:55;100846.19;;;28.56;72.37
56040;BME280;43937;41.366;2.072;2023-07-30T05:02:21;100852.88;;;28.65;72.83
56040;BME280;43937;41.366;2.072;2023-07-30T05:04:46;100847.78;;;28.77;71.49
56040;BME280;43937;41.366;2.072;2023-07-30T05:07:56;100832.41;;;28.70;71.35
56040;BME280;43937;41.366;2.072;2023-07-30T05:10:21;100855.84;;;28.94;70.91
56040;BME280;43937;41.366;2.072;2023-07-30T05:12:47;100859.44;;;29.10;70.46
56040;BME280;43937;41.366;2.072;2023-07-30T05:15:12;100842.38;;;29.07;70.23
56040;BME280;43937;41.366;2.072;2023-07-30T05:17:38;100841.00;;;28.99;70.38
56040;BME280;43937;41.366;2.072;2023-07-30T05:20:04;100870.56;;;29.26;68.82
56040;BME280;43937;41.366;2.072;2023-07-30T05:22:30;100872.59;;;30.04;66.65
56040;BME280;43937;41.366;2.072;2023-07-30T05:24:55;100877.41;;;30.86;62.43
56040;BME280;43937;41.366;2.072;2023-07-30T05:27:20;100877.72;;;30.31;63.54
56040;BME280;43937;41.366;2.072;2023-07-30T05:29:46;100886.09;;;30.02;65.02
56040;BME280;43937;41.366;2.072;2023-07-30T05:32:11;100879.16;;;29.89;65.05
56040;BME280;43937;41.366;2.072;2023-07-30T05:34:37;100879.22;;;29.84;65.89
56040;BME280;43937;41.366;2.072;2023-07-30T05:37:03;100879.03;;;32.10;58.64
56040;BME280;43937;41.366;2.072;2023-07-30T05:39:28;100874.91;;;32.96;54.75
56040;BME280;43937;41.366;2.072;2023-07-30T05:41:54;100881.59;;;34.23;52.17
56040;BME280;43937;41.366;2.072;2023-07-30T05:44:19;100896.19;;;35.18;48.76
56040;BME280;43937;41.366;2.072;2023-07-30T05:46:45;100903.47;;;35.85;46.61
56040;BME280;43937;41.366;2.072;2023-07-30T05:49:10;100880.59;;;36.34;45.30
56040;BME280;43937;41.366;2.072;2023-07-30T05:51:36;100907.06;;;37.02;43.94
56040;BME280;43937;41.366;2.072;2023-07-30T05:54:01;100918.97;;;37.97;42.22
56040;BME280;43937;41.366;2.072;2023-07-30T05:56:26;100904.75;;;38.51;39.96
56040;BME280;43937;41.366;2.072;2023-07-30T05:58:52;100919.22;;;38.58;39.79
56040;BME280;43937;41.366;2.072;2023-07-30T06:01:18;100907.00;;;36.73;43.04
56040;BME280;43937;41.366;2.072;2023-07-30T06:03:45;100915.66;;;34.49;48.50
56040;BME280;43937;41.366;2.072;2023-07-30T06:06:10;100920.22;;;37.66;42.21
56040;BME280;43937;41.366;2.072;2023-07-30T06:08:36;100925.34;;;39.06;39.34
56040;BME280;43937;41.366;2.072;2023-07-30T06:11:02;100933.09;;;40.23;37.30
56040;BME280;43937;41.366;2.072;2023-07-30T06:13:30;100938.09;;;39.86;37.17
56040;BME280;43937;41.366;2.072;2023-07-30T06:15:56;100931.72;;;40.61;36.34
56040;BME280;43937;41.366;2.072;2023-07-30T06:18:21;100946.59;;;40.82;35.95
56040;BME280;43937;41.366;2.072;2023-07-30T06:20:47;100920.41;;;40.80;35.73
56040;BME280;43937;41.366;2.072;2023-07-30T06:23:12;100946.00;;;40.92;35.64
56040;BME280;43937;41.366;2.072;2023-07-30T06:25:38;100934.69;;;41.63;34.67
56040;BME280;43937;41.366;2.072;2023-07-30T06:28:05;100949.16;;;42.90;32.71
56040;BME280;43937;41.366;2.072;2023-07-30T06:30:31;100956.19;;;43.69;32.16
56040;BME280;43937;41.366;2.072;2023-07-30T06:32:57;100968.66;;;44.10;31.61
56040;BME280;43937;41.366;2.072;2023-07-30T06:35:22;100966.88;;;44.32;31.28
56040;BME280;43937;41.366;2.072;2023-07-30T06:37:48;100976.94;;;44.49;31.13
56040;BME280;43937;41.366;2.072;2023-07-30T06:40:13;100973.25;;;44.49;31.80
56040;BME280;43937;41.366;2.072;2023-07-30T06:42:39;100954.59;;;43.72;32.84
56040;BME280;43937;41.366;2.072;2023-07-30T06:45:04;100969.03;;;43.52;32.61
56040;BME280;43937;41.366;2.072;2023-07-30T06:47:30;100976.69;;;44.31;32.00
56040;BME280;43937;41.366;2.072;2023-07-30T06:49:55;100988.25;;;44.72;31.12
56040;BME280;43937;41.366;2.072;2023-07-30T06:52:21;100971.22;;;45.42;29.39
56040;BME280;43937;41.366;2.072;2023-07-30T06:54:46;100988.72;;;45.74;28.70
56040;BME280;43937;41.366;2.072;2023-07-30T06:57:12;100989.81;;;45.03;30.27
56040;BME280;43937;41.366;2.072;2023-07-30T06:59:37;100992.44;;;45.23;29.77
56040;BME280;43937;41.366;2.072;2023-07-30T07:02:03;100999.75;;;45.65;29.17
56040;BME280;43937;41.366;2.072;2023-07-30T07:04:30;100999.91;;;47.20;27.08
56040;BME280;43937;41.366;2.072;2023-07-30T07:06:55;101007.69;;;47.81;26.48
56040;BME280;43937;41.366;2.072;2023-07-30T07:09:21;101006.28;;;45.10;29.44
56040;BME280;43937;41.366;2.072;2023-07-30T07:11:46;101002.38;;;47.08;26.48
56040;BME280;43937;41.366;2.072;2023-07-30T07:14:12;100999.91;;;44.87;29.26
56040;BME280;43937;41.366;2.072;2023-07-30T07:16:37;100990.88;;;43.90;30.87
56040;BME280;43937;41.366;2.072;2023-07-30T07:19:03;100988.34;;;43.82;30.90
56040;BME280;43937;41.366;2.072;2023-07-30T07:21:28;101004.91;;;45.41;28.36
56040;BME280;43937;41.366;2.072;2023-07-30T07:23:54;101008.16;;;47.22;26.93
56040;BME280;43937;41.366;2.072;2023-07-30T07:26:20;101009.75;;;47.80;25.42
56040;BME280;43937;41.366;2.072;2023-07-30T07:28:46;101012.28;;;47.46;25.68
56040;BME280;43937;41.366;2.072;2023-07-30T07:31:11;101014.31;;;47.78;24.91
56040;BME280;43937;41.366;2.072;2023-07-30T07:33:37;101004.56;;;43.71;30.61
56040;BME280;43937;41.366;2.072;2023-07-30T07:36:03;101001.94;;;41.25;34.14
56040;BME280;43937;41.366;2.072;2023-07-30T07:38:29;100997.09;;;39.73;37.37
56040;BME280;43937;41.366;2.072;2023-07-30T07:40:55;101003.81;;;40.45;36.78
56040;BME280;43937;41.366;2.072;2023-07-30T07:43:20;101004.78;;;42.89;31.73
56040;BME280;43937;41.366;2.072;2023-07-30T07:45:46;100992.34;;;41.02;34.08
56040;BME280;43937;41.366;2.072;2023-07-30T07:48:11;100991.09;;;39.37;36.46
56040;BME280;43937;41.366;2.072;2023-07-30T07:50:36;100998.09;;;38.49;38.35
56040;BME280;43937;41.366;2.072;2023-07-30T07:53:02;100987.72;;;41.45;34.14
56040;BME280;43937;41.366;2.072;2023-07-30T07:55:27;100977.06;;;40.50;35.57
56040;BME280;43937;41.366;2.072;2023-07-30T07:57:53;101006.66;;;44.68;29.53
56040;BME280;43937;41.366;2.072;2023-07-30T08:00:18;101011.41;;;47.74;25.07
56040;BME280;43937;41.366;2.072;2023-07-30T08:02:44;101018.31;;;48.97;23.69
56040;BME280;43937;41.366;2.072;2023-07-30T08:05:10;101019.09;;;48.31;24.33
56040;BME280;43937;41.366;2.072;2023-07-30T08:07:36;100993.56;;;46.32;26.04
56040;BME280;43937;41.366;2.072;2023-07-30T08:10:01;100998.91;;;42.40;31.12
56040;BME280;43937;41.366;2.072;2023-07-30T08:12:27;100992.72;;;40.56;33.73
56040;BME280;43937;41.366;2.072;2023-07-30T08:14:53;100975.75;;;38.93;36.50
56040;BME280;43937;41.366;2.072;2023-07-30T08:17:18;100987.13;;;39.17;36.35
56040;BME280;43937;41.366;2.072;2023-07-30T08:19:44;100983.88;;;41.21;32.96
56040;BME280;43937;41.366;2.072;2023-07-30T08:22:09;101005.84;;;40.45;34.24
56040;BME280;43937;41.366;2.072;2023-07-30T08:24:34;100993.16;;;42.01;31.31
56040;BME280;43937;41.366;2.072;2023-07-30T08:27:00;100998.72;;;41.94;31.17
56040;BME280;43937;41.366;2.072;2023-07-30T08:29:26;101016.28;;;44.49;27.65
56040;BME280;43937;41.366;2.072;2023-07-30T08:31:51;101011.88;;;45.96;24.89
56040;BME280;43937;41.366;2.072;2023-07-30T08:34:17;101019.69;;;47.08;23.62
56040;BME280;43937;41.366;2.072;2023-07-30T08:36:42;101017.63;;;47.26;23.57
56040;BME280;43937;41.366;2.072;2023-07-30T08:39:08;101031.19;;;47.65;23.34
56040;BME280;43937;41.366;2.072;2023-07-30T08:41:34;100991.25;;;46.88;23.63
56040;BME280;43937;41.366;2.072;2023-07-30T08:43:59;101017.91;;;44.46;26.17
56040;BME280;43937;41.366;2.072;2023-07-30T08:46:25;101014.28;;;45.31;25.66
56040;BME280;43937;41.366;2.072;2023-07-30T08:48:50;101016.78;;;45.91;25.71
56040;BME280;43937;41.366;2.072;2023-07-30T08:51:17;100998.25;;;43.88;27.38
56040;BME280;43937;41.366;2.072;2023-07-30T08:53:42;101020.84;;;45.32;25.76
56040;BME280;43937;41.366;2.072;2023-07-30T08:56:09;101024.06;;;45.23;26.03
56040;BME280;43937;41.366;2.072;2023-07-30T08:58:34;101023.75;;;44.91;26.90
56040;BME280;43937;41.366;2.072;2023-07-30T09:01:08;101013.84;;;43.14;28.74
56040;BME280;43937;41.366;2.072;2023-07-30T09:03:35;101024.66;;;40.34;32.96
56040;BME280;43937;41.366;2.072;2023-07-30T09:06:03;101014.91;;;39.21;35.16
56040;BME280;43937;41.366;2.072;2023-07-30T09:08:28;101019.34;;;42.03;31.21
56040;BME280;43937;41.366;2.072;2023-07-30T09:10:55;101009.91;;;40.88;32.23
56040;BME280;43937;41.366;2.072;2023-07-30T09:13:21;101022.22;;;41.87;31.63
56040;BME280;43937;41.366;2.072;2023-07-30T09:15:50;101017.44;;;41.56;31.69
56040;BME280;43937;41.366;2.072;2023-07-30T09:18:18;101021.06;;;39.96;34.45
56040;BME280;43937;41.366;2.072;2023-07-30T09:20:44;101025.47;;;38.41;36.96
56040;BME280;43937;41.366;2.072;2023-07-30T09:23:10;101019.06;;;38.23;36.95
56040;BME280;43937;41.366;2.072;2023-07-30T09:25:37;101004.22;;;38.18;36.96
56040;BME280;43937;41.366;2.072;2023-07-30T09:28:03;100988.91;;;38.52;36.08
56040;BME280;43937;41.366;2.072;2023-07-30T09:30:29;101026.59;;;39.77;34.75
56040;BME280;43937;41.366;2.072;2023-07-30T09:32:56;101014.09;;;38.41;37.14
56040;BME280;43937;41.366;2.072;2023-07-30T09:35:23;100990.84;;;37.08;39.41
56040;BME280;43937;41.366;2.072;2023-07-30T09:38:00;101019.53;;;39.01;36.24
56040;BME280;43937;41.366;2.072;2023-07-30T09:40:36;100995.72;;;39.42;35.21
56040;BME280;43937;41.366;2.072;2023-07-30T09:43:03;101007.97;;;38.85;35.91
56040;BME280;43937;41.366;2.072;2023-07-30T09:45:33;101018.56;;;37.79;38.13
56040;BME280;43937;41.366;2.072;2023-07-30T09:47:59;101015.53;;;38.26;37.99
56040;BME280;43937;41.366;2.072;2023-07-30T09:50:28;101019.16;;;37.85;38.00
56040;BME280;43937;41.366;2.072;2023-07-30T09:52:54;101020.50;;;37.58;38.85
56040;BME280;43937;41.366;2.072;2023-07-30T09:55:19;101007.78;;;37.94;38.21
56040;BME280;43937;41.366;2.072;2023-07-30T09:57:45;101015.88;;;37.45;39.35
56040;BME280;43937;41.366;2.072;2023-07-30T10:00:11;101021.72;;;38.29;37.55
56040;BME280;43937;41.366;2.072;2023-07-30T10:02:41;101015.38;;;37.51;38.92
56040;BME280;43937;41.366;2.072;2023-07-30T10:05:12;101028.75;;;37.80;38.40
56040;BME280;43937;41.366;2.072;2023-07-30T10:07:53;101038.63;;;38.04;37.80
56040;BME280;43937;41.366;2.072;2023-07-30T10:10:19;101032.72;;;38.09;37.22
56040;BME280;43937;41.366;2.072;2023-07-30T10:12:47;101024.69;;;38.53;35.92
56040;BME280;43937;41.366;2.072;2023-07-30T10:15:13;101032.03;;;37.62;36.20
56040;BME280;43937;41.366;2.072;2023-07-30T10:17:38;101032.13;;;37.35;36.39
56040;BME280;43937;41.366;2.072;2023-07-30T10:20:24;101029.59;;;36.96;38.06
56040;BME280;43937;41.366;2.072;2023-07-30T10:22:55;101030.88;;;38.13;36.08
56040;BME280;43937;41.366;2.072;2023-07-30T10:25:52;101030.66;;;38.72;35.35
56040;BME280;43937;41.366;2.072;2023-07-30T10:31:00;101041.13;;;40.52;31.29
56040;BME280;43937;41.366;2.072;2023-07-30T10:33:50;101016.50;;;38.85;33.63
56040;BME280;43937;41.366;2.072;2023-07-30T10:36:42;101025.34;;;39.16;33.63
56040;BME280;43937;41.366;2.072;2023-07-30T10:39:13;101017.06;;;38.45;35.18
56040;BME280;43937;41.366;2.072;2023-07-30T10:41:39;101016.94;;;37.91;35.75
56040;BME280;43937;41.366;2.072;2023-07-30T10:44:05;101016.09;;;37.69;35.26
56040;BME280;43937;41.366;2.072;2023-07-30T10:46:30;101020.03;;;38.48;34.71
56040;BME280;43937;41.366;2.072;2023-07-30T10:48:56;101027.72;;;39.14;34.19
56040;BME280;43937;41.366;2.072;2023-07-30T10:51:21;101015.53;;;39.51;33.47
56040;BME280;43937;41.366;2.072;2023-07-30T10:53:49;101017.22;;;38.61;33.70
56040;BME280;43937;41.366;2.072;2023-07-30T10:56:16;101003.94;;;37.90;34.38
56040;BME280;43937;41.366;2.072;2023-07-30T10:58:42;101000.88;;;37.74;34.91
56040;BME280;43937;41.366;2.072;2023-07-30T11:01:09;101028.31;;;37.91;34.23
56040;BME280;43937;41.366;2.072;2023-07-30T11:03:35;101007.38;;;37.74;35.02
56040;BME280;43937;41.366;2.072;2023-07-30T11:06:02;101023.09;;;37.72;35.58
56040;BME280;43937;41.366;2.072;2023-07-30T11:08:39;101029.66;;;37.64;34.71
56040;BME280;43937;41.366;2.072;2023-07-30T11:11:06;101003.94;;;37.30;34.30
56040;BME280;43937;41.366;2.072;2023-07-30T11:13:43;101021.22;;;37.76;34.50
56040;BME280;43937;41.366;2.072;2023-07-30T11:16:09;101035.78;;;38.04;34.44
56040;BME280;43937;41.366;2.072;2023-07-30T11:18:36;101024.50;;;38.16;33.42
56040;BME280;43937;41.366;2.072;2023-07-30T11:21:06;101014.13;;;38.33;33.39
56040;BME280;43937;41.366;2.072;2023-07-30T11:23:33;101038.28;;;38.26;33.53
56040;BME280;43937;41.366;2.072;2023-07-30T11:26:01;101020.81;;;37.65;35.38
56040;BME280;43937;41.366;2.072;2023-07-30T11:28:35;101011.75;;;37.33;35.12
56040;BME280;43937;41.366;2.072;2023-07-30T11:31:04;101004.53;;;37.45;34.80
56040;BME280;43937;41.366;2.072;2023-07-30T11:33:30;101015.75;;;37.41;35.66
56040;BME280;43937;41.366;2.072;2023-07-30T11:35:56;101019.94;;;37.35;34.57
56040;BME280;43937;41.366;2.072;2023-07-30T11:38:25;100998.88;;;37.74;33.72
56040;BME280;43937;41.366;2.072;2023-07-30T11:40:53;101009.75;;;37.34;33.64
56040;BME280;43937;41.366;2.072;2023-07-30T11:43:20;101016.44;;;38.18;33.10
56040;BME280;43937;41.366;2.072;2023-07-30T11:45:46;101011.50;;;38.07;33.02
56040;BME280;43937;41.366;2.072;2023-07-30T11:48:11;100999.78;;;37.87;34.17
56040;BME280;43937;41.366;2.072;2023-07-30T11:50:44;101006.19;;;38.05;33.42
56040;BME280;43937;41.366;2.072;2023-07-30T11:53:09;100998.47;;;38.26;32.34
56040;BME280;43937;41.366;2.072;2023-07-30T11:55:38;101007.09;;;37.67;33.25
56040;BME280;43937;41.366;2.072;2023-07-30T11:58:05;100966.84;;;36.88;34.81
56040;BME280;43937;41.366;2.072;2023-07-30T12:00:34;101011.97;;;37.88;34.18
56040;BME280;43937;41.366;2.072;2023-07-30T12:03:02;100982.47;;;36.30;37.97
56040;BME280;43937;41.366;2.072;2023-07-30T12:05:34;101004.47;;;36.24;38.29
56040;BME280;43937;41.366;2.072;2023-07-30T12:08:01;100998.94;;;36.72;36.75
56040;BME280;43937;41.366;2.072;2023-07-30T12:10:40;101002.94;;;37.26;36.60
56040;BME280;43937;41.366;2.072;2023-07-30T12:13:16;100999.19;;;37.13;37.53
56040;BME280;43937;41.366;2.072;2023-07-30T12:15:52;100976.94;;;37.54;35.54
56040;BME280;43937;41.366;2.072;2023-07-30T12:18:19;101004.13;;;36.61;35.44
56040;BME280;43937;41.366;2.072;2023-07-30T12:20:45;101004.97;;;36.61;36.42
56040;BME280;43937;41.366;2.072;2023-07-30T12:23:10;100994.53;;;36.91;35.00
56040;BME280;43937;41.366;2.072;2023-07-30T12:25:36;100989.06;;;37.63;33.64
56040;BME280;43937;41.366;2.072;2023-07-30T12:28:02;100985.03;;;37.64;33.45
56040;BME280;43937;41.366;2.072;2023-07-30T12:30:27;100997.81;;;36.38;36.60
56040;BME280;43937;41.366;2.072;2023-07-30T12:32:53;100996.97;;;36.55;35.06
56040;BME280;43937;41.366;2.072;2023-07-30T12:35:19;101001.31;;;36.17;34.92
56040;BME280;43937;41.366;2.072;2023-07-30T12:37:45;100985.25;;;35.61;37.63
56040;BME280;43937;41.366;2.072;2023-07-30T12:40:10;101001.47;;;35.38;38.78
56040;BME280;43937;41.366;2.072;2023-07-30T12:42:36;100961.09;;;35.72;36.89
56040;BME280;43937;41.366;2.072;2023-07-30T12:45:01;100996.28;;;35.97;35.71
56040;BME280;43937;41.366;2.072;2023-07-30T12:47:27;100996.47;;;36.35;32.58
56040;BME280;43937;41.366;2.072;2023-07-30T12:49:52;100986.28;;;35.91;34.01
56040;BME280;43937;41.366;2.072;2023-07-30T12:52:18;100987.13;;;35.74;33.90